Time;durP1;ratioP1;P1;durP2;ratioP2;P2;SDS_P1;SDS_P2;PMS_P1;PMS_P2;Temp;Humidity;BMP_temperature;BMP_pressure;BME280_temperature;BME280_humidity;BME280_pressure;Samples;Min_cycle;Max_cycle;Signal;HPM_P1;HPM_P2
2021/12/29 00:01:56;;;;;;;42.95;19.92;;;6.70;99.90;;;;;;5116510;28;20047;-70
2021/12/29 00:04:22;;;;;;;50.47;21.80;;;7.60;99.90;;;;;;5098015;28;20093;-70
2021/12/29 00:06:49;;;;;;;49.40;21.40;;;;;;;;;;5096860;28;20043;-70
2021/12/29 00:09:14;;;;;;;41.08;19.77;;;6.90;99.90;;;;;;5087665;28;20464;-70
2021/12/29 00:11:41;;;;;;;45.08;21.58;;;7.20;99.90;;;;;;5097141;28;20035;-69
2021/12/29 00:14:08;;;;;;;41.50;19.63;;;7.00;99.90;;;;;;5076524;28;20044;-70
2021/12/29 00:16:35;;;;;;;45.35;21.75;;;6.90;99.90;;;;;;5094640;28;20385;-70
2021/12/29 00:19:05;;;;;;;51.10;22.45;;;6.70;99.90;;;;;;5111482;28;20120;-70
2021/12/29 00:21:33;;;;;;;48.65;23.40;;;6.70;99.90;;;;;;5111004;28;20492;-70
2021/12/29 00:23:59;;;;;;;49.17;24.38;;;6.80;99.90;;;;;;5076994;28;20092;-70
2021/12/29 00:26:26;;;;;;;63.35;26.60;;;9.00;99.90;;;;;;5082640;28;20040;-70
2021/12/29 00:28:53;;;;;;;60.65;26.05;;;7.00;99.90;;;;;;5080053;28;20058;-70
2021/12/29 00:31:18;;;;;;;59.90;25.98;;;8.90;99.90;;;;;;5097002;28;20050;-70
2021/12/29 00:33:44;;;;;;;57.20;25.45;;;;;;;;;;5084051;28;20059;-70
2021/12/29 00:36:10;;;;;;;54.75;24.67;;;;;;;;;;5076017;28;20051;-70
2021/12/29 00:38:36;;;;;;;60.63;25.42;;;7.00;99.90;;;;;;5093043;28;20040;-70
2021/12/29 00:41:03;;;;;;;64.25;26.50;;;8.50;99.90;;;;;;5080253;28;20050;-70
2021/12/29 00:43:28;;;;;;;50.65;24.38;;;6.70;99.90;;;;;;5115230;28;20534;-70
2021/12/29 00:45:54;;;;;;;56.00;25.10;;;6.90;99.90;;;;;;5096913;28;20039;-70
2021/12/29 00:48:21;;;;;;;64.97;26.88;;;6.80;99.90;;;;;;5079366;28;20054;-71
2021/12/29 00:50:47;;;;;;;68.38;27.50;;;6.60;99.90;;;;;;5096878;28;20042;-70
2021/12/29 00:53:14;;;;;;;62.42;26.63;;;8.60;99.90;;;;;;5082210;28;20040;-70
2021/12/29 00:55:40;;;;;;;62.03;26.00;;;6.60;99.90;;;;;;5075992;28;20147;-71
2021/12/29 00:58:09;;;;;;;88.00;29.30;;;6.60;99.90;;;;;;5076834;28;20126;-71
2021/12/29 01:00:37;;;;;;;56.47;23.52;;;8.40;99.90;;;;;;5076717;28;20400;-71
2021/12/29 01:03:07;;;;;;;82.40;28.67;;;6.60;99.90;;;;;;5075415;28;20056;-71
2021/12/29 01:05:33;;;;;;;57.25;23.73;;;7.30;99.90;;;;;;5076502;28;20036;-70
2021/12/29 01:07:59;;;;;;;83.07;26.73;;;;;;;;;;5076481;28;20389;-70
2021/12/29 01:10:26;;;;;;;92.55;29.38;;;;;;;;;;5075694;28;20036;-70
2021/12/29 01:13:00;;;;;;;83.63;26.63;;;6.80;99.90;;;;;;5095880;28;20047;-70
2021/12/29 01:15:33;;;;;;;73.35;24.65;;;6.60;99.90;;;;;;5096405;28;20044;-70
2021/12/29 01:18:03;;;;;;;77.28;25.77;;;6.80;99.90;;;;;;5095776;28;20051;-70
2021/12/29 01:20:30;;;;;;;73.13;26.45;;;6.70;99.90;;;;;;5079530;28;20052;-70
2021/12/29 01:22:58;;;;;;;70.65;23.25;;;;;;;;;;5096574;28;20044;-70
2021/12/29 01:25:24;;;;;;;68.13;22.65;;;6.80;99.90;;;;;;5090434;28;20451;-70
2021/12/29 01:27:50;;;;;;;103.47;30.90;;;6.60;99.90;;;;;;5111593;28;20111;-70
2021/12/29 01:30:16;;;;;;;86.32;26.55;;;6.60;99.90;;;;;;5095872;28;20472;-70
2021/12/29 01:32:42;;;;;;;70.68;24.50;;;7.00;99.90;;;;;;5096053;28;20146;-70
2021/12/29 01:35:10;;;;;;;76.30;25.55;;;6.80;99.90;;;;;;5095907;28;20050;-70
2021/12/29 01:37:36;;;;;;;108.47;31.00;;;6.90;99.90;;;;;;5094267;28;20054;-70
2021/12/29 01:40:06;;;;;;;79.43;24.38;;;8.40;99.90;;;;;;5095639;28;20043;-70
2021/12/29 01:42:32;;;;;;;96.18;26.23;;;;;;;;;;5130033;27;20370;-70
2021/12/29 01:44:58;;;;;;;59.35;19.83;;;;;;;;;;5094986;28;20036;-70
2021/12/29 01:47:29;;;;;;;78.63;23.08;;;7.00;99.90;;;;;;5094917;28;20043;-70
2021/12/29 01:49:55;;;;;;;71.18;21.95;;;6.70;99.90;;;;;;5078646;28;20046;-70
2021/12/29 01:52:27;;;;;;;59.28;19.50;;;6.80;99.90;;;;;;5078263;28;20055;-70
2021/12/29 01:54:52;;;;;;;64.10;21.15;;;8.90;99.90;;;;;;5095230;28;20100;-70
2021/12/29 01:57:19;;;;;;;60.90;21.27;;;6.80;99.90;;;;;;5129325;27;20480;-70
2021/12/29 01:59:45;;;;;;;60.75;19.92;;;;;;;;;;5094603;28;20510;-70
2021/12/29 02:02:14;;;;;;;58.67;20.15;;;7.20;99.90;;;;;;5079332;28;20047;-71
2021/12/29 02:04:47;;;;;;;53.85;19.10;;;9.20;99.90;;;;;;5078452;28;20460;-70
2021/12/29 02:07:13;;;;;;;44.88;20.02;;;;;;;;;;5112932;28;20031;-70
2021/12/29 02:09:40;;;;;;;43.15;19.30;;;7.30;99.90;;;;;;5096347;28;20400;-70
2021/12/29 02:12:07;;;;;;;47.90;19.83;;;7.30;99.90;;;;;;5078134;28;20122;-70
2021/12/29 02:14:33;;;;;;;43.45;20.08;;;7.40;99.90;;;;;;5094802;28;20067;-69
2021/12/29 02:16:59;;;;;;;37.78;17.90;;;7.10;99.90;;;;;;5095630;28;20449;-71
2021/12/29 02:19:26;;;;;;;38.90;18.70;;;7.40;99.90;;;;;;5094178;28;20104;-71
2021/12/29 02:22:04;;;;;;;34.95;17.02;;;7.40;99.90;;;;;;5074290;28;20036;-71
2021/12/29 02:24:40;;;;;;;43.65;17.80;;;9.80;99.90;;;;;;5074737;28;20118;-73
2021/12/29 02:27:06;;;;;;;;;;;7.50;99.90;;;;;;5110657;28;21122;-73
2021/12/29 02:29:33;;;;;;;42.42;18.35;;;7.40;99.90;;;;;;5084305;28;19920;-70
2021/12/29 02:31:59;;;;;;;47.60;18.80;;;7.60;99.90;;;;;;5095188;28;20487;-71
2021/12/29 02:34:25;;;;;;;39.55;19.38;;;7.40;99.90;;;;;;5093892;28;20031;-71
2021/12/29 02:36:51;;;;;;;36.65;18.65;;;7.20;99.90;;;;;;5094430;28;20047;-70
2021/12/29 02:39:22;;;;;;;38.03;17.90;;;7.40;99.90;;;;;;5128952;27;20036;-71
2021/12/29 02:41:53;;;;;;;38.05;18.45;;;7.50;99.90;;;;;;5094178;28;20035;-70
2021/12/29 02:44:29;;;;;;;42.15;20.63;;;7.20;99.90;;;;;;5094959;28;20057;-70
2021/12/29 02:46:57;;;;;;;37.13;17.48;;;7.50;99.90;;;;;;5095468;28;20050;-72
2021/12/29 02:49:25;;;;;;;49.20;19.60;;;7.50;99.90;;;;;;5093855;28;20035;-72
2021/12/29 02:51:52;;;;;;;39.15;19.30;;;;;;;;;;5104960;28;20080;-72
2021/12/29 02:54:18;;;;;;;41.67;19.13;;;;;;;;;;5074697;28;20040;-72
2021/12/29 02:56:47;;;;;;;47.65;22.17;;;7.40;99.90;;;;;;5073904;28;20044;-72
2021/12/29 02:59:13;;;;;;;44.72;21.30;;;8.80;99.90;;;;;;5096453;28;20039;-72
2021/12/29 03:01:38;;;;;;;46.25;22.52;;;9.30;99.90;;;;;;5095221;28;20495;-71
2021/12/29 03:04:06;;;;;;;41.92;19.92;;;8.00;99.90;;;;;;5093661;28;20043;-71
2021/12/29 03:06:33;;;;;;;45.38;19.50;;;7.10;99.90;;;;;;5093333;28;20080;-71
2021/12/29 03:08:59;;;;;;;40.92;19.98;;;;;;;;;;5094258;28;20054;-71
2021/12/29 03:11:24;;;;;;;40.05;18.88;;;7.40;99.90;;;;;;5077186;28;20042;-72
2021/12/29 03:13:50;;;;;;;37.25;18.08;;;7.00;99.90;;;;;;5077596;28;20126;-72
2021/12/29 03:16:16;;;;;;;37.60;17.92;;;7.30;99.90;;;;;;5093985;28;20087;-72
2021/12/29 03:18:42;;;;;;;42.08;18.58;;;7.30;99.90;;;;;;5094938;28;20047;-71
2021/12/29 03:21:10;;;;;;;28.88;13.85;;;7.40;99.90;;;;;;5076406;28;20067;-71
2021/12/29 03:23:35;;;;;;;36.33;16.90;;;7.60;99.90;;;;;;5093270;28;20051;-71
2021/12/29 03:26:02;;;;;;;30.00;15.65;;;7.10;99.90;;;;;;5093913;28;20040;-72
2021/12/29 03:28:28;;;;;;;35.55;16.13;;;7.00;99.90;;;;;;5094035;28;20120;-72
2021/12/29 03:30:55;;;;;;;36.72;16.50;;;7.60;99.90;;;;;;5076405;28;20101;-72
2021/12/29 03:33:23;;;;;;;37.35;17.65;;;7.30;99.90;;;;;;5094597;28;20051;-71
2021/12/29 03:35:57;;;;;;;37.22;17.33;;;7.30;99.90;;;;;;5093707;28;20483;-71
2021/12/29 03:38:26;;;;;;;36.63;16.33;;;7.30;99.90;;;;;;5093488;28;20088;-71
2021/12/29 03:40:54;;;;;;;31.25;16.55;;;7.30;99.90;;;;;;5093838;28;20043;-71
2021/12/29 03:43:20;;;;;;;34.50;16.67;;;7.10;99.90;;;;;;5112413;28;20055;-71
2021/12/29 03:45:48;;;;;;;37.58;17.13;;;7.20;99.90;;;;;;5076834;28;20511;-71
2021/12/29 03:48:14;;;;;;;33.88;16.60;;;7.40;99.90;;;;;;5094120;28;20048;-71
2021/12/29 03:50:41;;;;;;;31.85;17.33;;;7.40;99.90;;;;;;5087449;28;20046;-71
2021/12/29 03:53:08;;;;;;;35.22;16.77;;;7.60;99.90;;;;;;5089860;28;20044;-71
2021/12/29 03:55:34;;;;;;;32.17;16.63;;;6.90;99.90;;;;;;5083171;28;20047;-71
2021/12/29 03:57:59;;;;;;;35.95;17.63;;;7.40;99.90;;;;;;5094211;28;20399;-71
2021/12/29 04:00:25;;;;;;;36.17;19.10;;;7.40;99.90;;;;;;5093360;28;20035;-71
2021/12/29 04:02:51;;;;;;;37.83;18.45;;;7.40;99.90;;;;;;5093898;28;20040;-71
2021/12/29 04:05:21;;;;;;;34.58;18.75;;;7.40;99.90;;;;;;5092209;28;20032;-71
2021/12/29 04:07:47;;;;;;;38.05;18.42;;;8.60;99.90;;;;;;5074077;28;20118;-71
2021/12/29 04:10:13;;;;;;;36.53;18.67;;;7.70;99.90;;;;;;5077624;28;20088;-71
2021/12/29 04:12:39;;;;;;;37.97;18.35;;;7.40;99.90;;;;;;5097298;28;20043;-71
2021/12/29 04:15:07;;;;;;;37.45;19.10;;;7.30;99.90;;;;;;5080693;28;20047;-71
2021/12/29 04:17:37;;;;;;;33.60;16.70;;;7.40;99.90;;;;;;5097567;28;20507;-71
2021/12/29 04:22:56;;;;;;;32.72;17.85;;;;;;;;;;5099811;28;20054;-71
2021/12/29 04:25:26;;;;;;;32.22;18.35;;;7.40;99.90;;;;;;5097508;28;20066;-72
2021/12/29 04:27:53;;;;;;;36.30;18.38;;;8.20;99.90;;;;;;5079914;28;20031;-72
2021/12/29 04:30:20;;;;;;;37.50;18.90;;;7.40;99.90;;;;;;5097337;28;20062;-71
2021/12/29 04:32:46;;;;;;;32.67;16.58;;;7.40;99.90;;;;;;5097632;28;20035;-71
2021/12/29 04:35:13;;;;;;;30.48;16.10;;;8.10;99.90;;;;;;5096593;28;20047;-71
2021/12/29 04:37:39;;;;;;;38.40;18.45;;;;;;;;;;5096911;28;20072;-71
2021/12/29 04:40:06;;;;;;;30.58;17.00;;;7.40;99.90;;;;;;5096992;28;20130;-71
2021/12/29 04:42:32;;;;;;;34.50;16.35;;;7.40;99.90;;;;;;5096194;28;20488;-71
2021/12/29 04:44:58;;;;;;;29.67;16.05;;;7.10;99.90;;;;;;5097207;28;20167;-71
2021/12/29 04:47:28;;;;;;;31.10;15.60;;;7.10;99.90;;;;;;5097194;28;20044;-71
2021/12/29 04:49:57;;;;;;;29.27;16.90;;;8.00;99.90;;;;;;5079450;28;20380;-71
2021/12/29 04:52:22;;;;;;;31.40;16.92;;;7.00;99.90;;;;;;5096890;28;20050;-71
2021/12/29 04:54:48;;;;;;;32.60;17.38;;;7.00;99.90;;;;;;5113068;27;20039;-71
2021/12/29 04:57:15;;;;;;;26.58;15.77;;;8.90;99.90;;;;;;5097134;28;20474;-71
2021/12/29 04:59:41;;;;;;;31.58;18.23;;;7.70;99.90;;;;;;5097381;28;20058;-71
2021/12/29 05:02:07;;;;;;;31.65;17.17;;;7.30;99.90;;;;;;5096121;28;20080;-71
2021/12/29 05:04:35;;;;;;;34.97;17.60;;;;;;;;;;5095807;28;20123;-71
2021/12/29 05:09:46;;;;;;;46.65;21.65;;;7.30;99.90;;;;;;5091406;28;20097;-71
2021/12/29 05:12:12;;;;;;;41.70;20.38;;;7.10;99.90;;;;;;5076834;28;20047;-71
2021/12/29 05:14:38;;;;;;;42.08;20.02;;;10.10;99.90;;;;;;5076503;28;20086;-71
2021/12/29 05:17:05;;;;;;;41.13;20.58;;;9.30;99.90;;;;;;5126846;27;20044;-71
2021/12/29 05:19:32;;;;;;;46.33;22.13;;;7.00;99.90;;;;;;5096659;28;20043;-71
2021/12/29 05:21:58;;;;;;;52.88;23.55;;;8.50;99.90;;;;;;5076797;28;20048;-71
2021/12/29 05:24:23;;;;;;;49.50;22.05;;;6.90;99.90;;;;;;5087077;28;20048;-71
2021/12/29 05:26:49;;;;;;;48.10;20.13;;;7.60;99.90;;;;;;5096658;28;20055;-70
2021/12/29 05:29:16;;;;;;;46.00;22.30;;;7.40;99.90;;;;;;5096242;28;20052;-71
2021/12/29 05:31:42;;;;;;;47.50;20.67;;;;;;;;;;5095390;28;20122;-71
2021/12/29 05:34:07;;;;;;;48.75;20.63;;;7.40;99.90;;;;;;5096215;28;20078;-71
2021/12/29 05:36:33;;;;;;;49.85;22.10;;;7.10;99.90;;;;;;5093145;28;20067;-71
2021/12/29 05:38:59;;;;;;;49.08;22.20;;;7.30;99.90;;;;;;5095309;28;20086;-71
2021/12/29 05:41:27;;;;;;;61.60;23.90;;;8.70;99.90;;;;;;5096467;28;20047;-71
2021/12/29 05:43:53;;;;;;;54.72;23.20;;;;;;;;;;5094921;28;20083;-71
2021/12/29 05:46:18;;;;;;;59.38;23.60;;;7.50;99.90;;;;;;5095827;28;20039;-71
2021/12/29 05:48:45;;;;;;;47.50;19.50;;;7.50;99.90;;;;;;5096015;28;20084;-71
2021/12/29 05:51:12;;;;;;;57.13;22.35;;;7.50;99.90;;;;;;5082828;28;20040;-71
2021/12/29 05:53:41;;;;;;;59.22;23.20;;;7.50;99.90;;;;;;5085155;28;20081;-72
2021/12/29 05:56:08;;;;;;;56.63;23.30;;;8.00;99.90;;;;;;5096176;28;20070;-71
2021/12/29 05:58:35;;;;;;;77.53;26.35;;;7.20;99.90;;;;;;5094804;28;20047;-71
2021/12/29 06:01:01;;;;;;;62.65;24.13;;;7.70;99.90;;;;;;5095543;28;20126;-71
2021/12/29 06:03:27;;;;;;;70.80;25.35;;;7.50;99.90;;;;;;5078764;28;20067;-72
2021/12/29 06:05:52;;;;;;;62.78;25.08;;;7.40;99.90;;;;;;5094044;28;20123;-71
2021/12/29 06:08:19;;;;;;;76.18;28.00;;;7.50;99.90;;;;;;5129690;27;20028;-71
2021/12/29 06:10:44;;;;;;;74.97;26.02;;;7.50;99.90;;;;;;5079375;28;20035;-71
2021/12/29 06:13:10;;;;;;;80.43;29.75;;;8.10;99.90;;;;;;5094738;28;20040;-71
2021/12/29 06:15:36;;;;;;;80.45;27.50;;;7.80;99.90;;;;;;5113218;28;20396;-72
2021/12/29 06:18:02;;;;;;;74.25;26.10;;;8.00;99.90;;;;;;5095326;28;20043;-72
2021/12/29 06:20:28;;;;;;;60.72;24.27;;;7.50;99.90;;;;;;5094075;28;20040;-72
2021/12/29 06:22:54;;;;;;;72.85;24.15;;;7.10;99.90;;;;;;5078373;28;20471;-71
2021/12/29 06:25:19;;;;;;;72.93;25.88;;;10.70;99.90;;;;;;5094895;28;20044;-70
2021/12/29 06:27:46;;;;;;;69.88;23.80;;;7.30;99.90;;;;;;5094586;28;20036;-71
2021/12/29 06:30:14;;;;;;;76.43;24.52;;;9.80;99.90;;;;;;5094753;28;20083;-72
2021/12/29 06:32:40;;;;;;;61.13;22.80;;;7.70;99.90;;;;;;5083643;28;20507;-72
2021/12/29 06:35:07;;;;;;;61.72;24.00;;;9.40;99.90;;;;;;5107285;28;20047;-72
2021/12/29 06:37:34;;;;;;;54.92;21.40;;;7.50;99.90;;;;;;5094405;28;20130;-71
2021/12/29 06:39:59;;;;;;;62.55;23.00;;;7.40;99.90;;;;;;5094542;28;20469;-71
2021/12/29 06:42:25;;;;;;;51.38;22.20;;;9.40;99.90;;;;;;5095115;28;20096;-71
2021/12/29 06:44:51;;;;;;;50.65;20.27;;;7.60;99.90;;;;;;5094787;28;20040;-71
2021/12/29 06:47:17;;;;;;;46.03;18.70;;;7.60;99.90;;;;;;5082141;28;20051;-71
2021/12/29 06:49:43;;;;;;;57.08;21.83;;;7.90;99.90;;;;;;5074663;28;20051;-71
2021/12/29 06:52:09;;;;;;;49.25;22.30;;;7.60;99.90;;;;;;5092152;28;20515;-72
2021/12/29 06:54:36;;;;;;;51.25;19.85;;;8.30;99.90;;;;;;5093955;28;20046;-71
2021/12/29 06:57:02;;;;;;;49.58;19.98;;;7.40;99.90;;;;;;5094607;28;20048;-71
2021/12/29 06:59:28;;;;;;;43.20;18.90;;;7.60;99.90;;;;;;5094359;28;20040;-71
2021/12/29 07:01:54;;;;;;;56.97;21.45;;;9.60;99.90;;;;;;5092747;28;20054;-71
2021/12/29 07:04:20;;;;;;;48.70;19.55;;;;;;;;;;5094512;28;20039;-71
2021/12/29 07:06:46;;;;;;;51.80;20.20;;;7.60;99.90;;;;;;5094811;28;20042;-70
2021/12/29 07:09:11;;;;;;;52.63;20.40;;;8.40;99.90;;;;;;5093826;28;20035;-70
2021/12/29 07:11:37;;;;;;;54.75;20.73;;;7.40;99.90;;;;;;5112836;28;20062;-71
2021/12/29 07:14:04;;;;;;;54.88;21.08;;;7.60;99.90;;;;;;5094384;28;20105;-70
2021/12/29 07:16:31;;;;;;;54.88;21.92;;;8.50;99.90;;;;;;5075781;28;20119;-71
2021/12/29 07:18:57;;;;;;;53.55;20.85;;;7.70;99.90;;;;;;5094163;28;20055;-70
2021/12/29 07:21:23;;;;;;;52.75;20.90;;;7.40;99.90;;;;;;5077544;28;20039;-71
2021/12/29 07:23:50;;;;;;;60.00;21.90;;;9.00;99.90;;;;;;5093426;28;20119;-72
2021/12/29 07:26:15;;;;;;;57.67;21.15;;;7.50;99.90;;;;;;5094406;28;20446;-71
2021/12/29 07:28:41;;;;;;;65.53;22.45;;;9.90;99.90;;;;;;5094341;28;20036;-71
2021/12/29 07:31:07;;;;;;;64.07;22.60;;;7.60;99.90;;;;;;5087745;28;20040;-71
2021/12/29 07:33:33;;;;;;;83.75;26.17;;;7.30;99.90;;;;;;5107697;28;20054;-71
2021/12/29 07:35:59;;;;;;;74.20;23.90;;;7.60;99.90;;;;;;5074404;28;20447;-71
2021/12/29 07:38:25;;;;;;;76.03;25.10;;;;;;;;;;5073212;28;20560;-71
2021/12/29 07:40:51;;;;;;;93.85;28.80;;;7.70;99.90;;;;;;5080490;28;20040;-71
2021/12/29 07:43:18;;;;;;;72.50;24.92;;;;;;;;;;5093452;28;20043;-70
2021/12/29 07:45:44;;;;;;;96.45;27.65;;;7.70;99.90;;;;;;5094431;28;20039;-70
2021/12/29 07:48:10;;;;;;;107.63;31.45;;;7.70;99.90;;;;;;5098247;28;20088;-71
2021/12/29 07:50:37;;;;;;;73.82;26.33;;;7.40;99.90;;;;;;5097524;28;20815;-71
2021/12/29 07:53:05;;;;;;;125.80;38.00;;;7.60;99.90;;;;;;5098184;28;20043;-71
2021/12/29 07:55:30;;;;;;;138.23;36.65;;;7.50;99.90;;;;;;5097467;28;20092;-71
2021/12/29 07:57:57;;;;;;;80.88;28.55;;;7.70;99.90;;;;;;5097200;28;20040;-71
2021/12/29 08:00:23;;;;;;;116.95;29.25;;;8.20;99.90;;;;;;5097050;28;20044;-71
2021/12/29 08:02:51;;;;;;;81.57;28.15;;;7.50;99.90;;;;;;5097892;28;20484;-70
2021/12/29 08:05:17;;;;;;;103.65;27.58;;;7.50;99.90;;;;;;5097135;28;20039;-70
2021/12/29 08:07:42;;;;;;;102.20;27.70;;;7.50;99.90;;;;;;5098215;28;20383;-70
2021/12/29 08:10:09;;;;;;;98.60;27.42;;;7.80;99.90;;;;;;5097413;28;20054;-70
2021/12/29 08:12:34;;;;;;;90.82;26.77;;;7.40;99.90;;;;;;5114778;28;20075;-70
2021/12/29 08:15:00;;;;;;;77.18;24.60;;;10.00;99.90;;;;;;5097888;28;20086;-70
2021/12/29 08:17:26;;;;;;;63.85;21.50;;;7.50;99.90;;;;;;5094783;28;20105;-71
2021/12/29 08:19:52;;;;;;;81.28;26.38;;;7.60;99.90;;;;;;5095878;28;20036;-70
2021/12/29 08:22:18;;;;;;;64.32;20.35;;;8.00;99.90;;;;;;5080631;28;20042;-70
2021/12/29 08:24:50;;;;;;;65.15;23.08;;;7.60;99.90;;;;;;5131548;27;20036;-69
2021/12/29 08:27:16;;;;;;;63.90;25.30;;;7.80;99.90;;;;;;5082131;28;20028;-72
2021/12/29 08:29:42;;;;;;;66.72;24.58;;;7.50;99.90;;;;;;5111097;28;20377;-69
2021/12/29 08:32:08;;;;;;;57.58;23.38;;;7.60;99.90;;;;;;5110744;27;20047;-70
2021/12/29 08:34:33;;;;;;;55.30;22.98;;;7.80;99.90;;;;;;5074037;28;20129;-72
2021/12/29 08:36:59;;;;;;;50.83;21.38;;;7.70;99.90;;;;;;5108477;28;20152;-69
2021/12/29 08:39:25;;;;;;;52.03;21.42;;;7.50;99.90;;;;;;5092816;28;20177;-68
2021/12/29 08:41:51;;;;;;;46.95;20.92;;;;;;;;;;5073914;28;20051;-70
2021/12/29 08:44:18;;;;;;;76.70;28.25;;;;;;;;;;5074168;28;20048;-69
2021/12/29 08:46:46;;;;;;;38.42;18.38;;;7.80;99.90;;;;;;5075476;28;20032;-70
2021/12/29 08:49:12;;;;;;;63.75;24.10;;;7.50;99.90;;;;;;5074444;28;20032;-70
2021/12/29 08:51:38;;;;;;;53.28;20.50;;;7.80;99.90;;;;;;5072980;28;20051;-70
2021/12/29 08:54:04;;;;;;;47.47;18.55;;;7.80;99.90;;;;;;5073750;28;20052;-69
2021/12/29 08:56:30;;;;;;;56.50;21.65;;;7.90;99.90;;;;;;5113208;27;20036;-69
2021/12/29 08:58:55;;;;;;;42.72;17.63;;;7.80;99.90;;;;;;5109911;28;20046;-71
2021/12/29 09:01:23;;;;;;;33.60;16.30;;;7.50;99.90;;;;;;5079295;28;20044;-69
2021/12/29 09:03:48;;;;;;;37.08;15.95;;;7.90;99.90;;;;;;5079813;28;20097;-71
2021/12/29 09:06:14;;;;;;;42.20;14.38;;;7.80;99.90;;;;;;5082657;28;20439;-71
2021/12/29 09:08:41;;;;;;;35.45;14.13;;;7.80;99.90;;;;;;5110123;28;20127;-71
2021/12/29 09:11:07;;;;;;;35.35;14.13;;;7.80;99.90;;;;;;5088255;28;20118;-71
2021/12/29 09:13:33;;;;;;;34.78;16.08;;;;;;;;;;5088042;28;20058;-71
2021/12/29 09:15:59;;;;;;;41.90;18.80;;;8.00;99.90;;;;;;5093779;28;20127;-69
2021/12/29 09:18:27;;;;;;;42.38;17.67;;;8.20;99.90;;;;;;5094141;28;20154;-69
2021/12/29 09:20:53;;;;;;;36.45;17.25;;;7.70;99.90;;;;;;5076663;28;20043;-69
2021/12/29 09:23:19;;;;;;;38.58;15.45;;;;;;;;;;5093026;28;20472;-70
2021/12/29 09:25:47;;;;;;;31.13;14.40;;;8.00;99.90;;;;;;5091249;28;20048;-70
2021/12/29 09:28:16;;;;;;;35.90;14.75;;;8.50;99.90;;;;;;5090672;28;20084;-69
2021/12/29 09:30:45;;;;;;;35.70;15.93;;;8.00;99.90;;;;;;5093241;28;20055;-70
2021/12/29 09:33:14;;;;;;;36.88;17.08;;;7.60;99.90;;;;;;5075954;28;20127;-69
2021/12/29 09:35:40;;;;;;;40.50;16.92;;;7.90;99.90;;;;;;5074017;28;20048;-70
2021/12/29 09:38:07;;;;;;;29.92;14.13;;;8.00;99.90;;;;;;5123262;27;20085;-71
2021/12/29 09:40:35;;;;;;;33.63;14.77;;;7.80;99.90;;;;;;5093426;28;20047;-70
2021/12/29 09:43:02;;;;;;;30.90;11.88;;;8.70;99.90;;;;;;5075857;28;20052;-70
2021/12/29 09:45:30;;;;;;;31.70;13.95;;;;;;;;;;5092911;28;20430;-70
2021/12/29 09:47:57;;;;;;;25.25;12.48;;;8.00;99.90;;;;;;5093685;28;20395;-70
2021/12/29 09:50:26;;;;;;;28.33;12.45;;;7.60;99.90;;;;;;5091171;28;20521;-70
2021/12/29 09:52:52;;;;;;;23.83;12.52;;;7.70;99.90;;;;;;5080139;28;20373;-69
2021/12/29 09:55:20;;;;;;;29.95;11.02;;;9.20;99.90;;;;;;5092555;28;20096;-68
2021/12/29 09:57:48;;;;;;;22.38;10.15;;;7.90;99.90;;;;;;5091832;28;20062;-70
2021/12/29 10:00:31;;;;;;;23.10;10.45;;;7.90;99.90;;;;;;5076400;28;20078;-69
2021/12/29 10:02:59;;;;;;;18.08;8.73;;;8.00;99.90;;;;;;5092719;28;20048;-69
2021/12/29 10:05:27;;;;;;;16.30;9.23;;;7.90;99.90;;;;;;5078284;28;20676;-68
2021/12/29 10:08:17;;;;;;;23.75;9.52;;;8.90;99.90;;;;;;5090686;28;20035;-68
2021/12/29 10:10:48;;;;;;;22.30;9.48;;;7.90;99.90;;;;;;5093385;28;20507;-68
2021/12/29 10:13:14;;;;;;;17.98;7.85;;;7.80;99.90;;;;;;5110288;28;20084;-68
2021/12/29 10:15:43;;;;;;;24.67;9.77;;;7.80;99.90;;;;;;5093401;28;20118;-68
2021/12/29 10:18:15;;;;;;;22.85;8.65;;;9.00;99.90;;;;;;5091653;28;20054;-68
2021/12/29 10:20:59;;;;;;;23.73;8.13;;;7.90;99.90;;;;;;5092718;28;20047;-67
2021/12/29 10:23:37;;;;;;;23.73;8.68;;;7.50;99.90;;;;;;5087679;28;20139;-68
2021/12/29 10:26:10;;;;;;;27.35;11.75;;;7.60;99.90;;;;;;5090534;28;20051;-68
2021/12/29 10:28:39;;;;;;;26.27;9.88;;;7.60;99.90;;;;;;5092706;28;20039;-68
2021/12/29 10:31:08;;;;;;;27.73;10.52;;;7.70;99.90;;;;;;5075200;28;20097;-67
2021/12/29 10:33:37;;;;;;;17.13;9.55;;;7.90;99.90;;;;;;5091229;28;20377;-68
2021/12/29 10:36:11;;;;;;;17.73;8.27;;;9.20;99.90;;;;;;5092686;28;20115;-68
2021/12/29 10:38:37;;;;;;;18.98;7.93;;;8.00;99.90;;;;;;5092993;28;20489;-67
2021/12/29 10:41:04;;;;;;;26.60;8.73;;;7.60;99.90;;;;;;5091394;28;20123;-68
2021/12/29 10:43:29;;;;;;;19.23;7.40;;;7.60;99.90;;;;;;5091754;28;20060;-65
2021/12/29 10:45:55;;;;;;;22.52;8.73;;;7.90;99.90;;;;;;5082808;28;20116;-66
2021/12/29 10:48:25;;;;;;;17.17;6.82;;;7.90;99.90;;;;;;5097517;28;20051;-68
2021/12/29 10:51:03;;;;;;;17.88;7.40;;;7.70;99.90;;;;;;5116317;27;20047;-67
2021/12/29 10:53:30;;;;;;;18.75;7.78;;;7.90;99.90;;;;;;5076266;28;20126;-67
2021/12/29 10:55:56;;;;;;;18.23;7.63;;;7.50;99.90;;;;;;5092625;28;20052;-67
2021/12/29 10:58:24;;;;;;;20.55;8.18;;;7.60;99.90;;;;;;5092307;28;20040;-67
2021/12/29 11:00:59;;;;;;;22.65;7.65;;;7.70;99.90;;;;;;5109485;28;20551;-67
2021/12/29 11:03:26;;;;;;;15.77;7.25;;;7.60;99.90;;;;;;5091885;28;20044;-68
2021/12/29 11:05:58;;;;;;;20.20;8.75;;;8.00;99.90;;;;;;5092229;28;20031;-67
2021/12/29 11:08:26;;;;;;;20.25;8.75;;;8.20;99.90;;;;;;5078983;28;20046;-68
2021/12/29 11:10:54;;;;;;;21.55;8.85;;;7.80;99.90;;;;;;5091054;28;20054;-69
2021/12/29 11:13:31;;;;;;;19.25;8.38;;;7.80;99.90;;;;;;5090946;28;20062;-69
2021/12/29 11:15:59;;;;;;;19.27;7.55;;;7.80;99.90;;;;;;5092476;28;20048;-66
2021/12/29 11:18:25;;;;;;;22.27;7.97;;;;;;;;;;5093600;28;20058;-68
2021/12/29 11:20:54;;;;;;;23.88;7.05;;;7.90;99.90;;;;;;5112422;28;20036;-70
2021/12/29 11:23:21;;;;;;;18.80;8.13;;;7.90;99.90;;;;;;5093438;28;20529;-70
2021/12/29 11:25:49;;;;;;;19.77;7.25;;;7.70;99.90;;;;;;5094154;28;20115;-66
2021/12/29 11:28:28;;;;;;;20.35;7.63;;;7.80;99.90;;;;;;5077413;28;20036;-66
2021/12/29 11:30:56;;;;;;;27.63;7.70;;;7.60;99.90;;;;;;5076946;28;20056;-66
2021/12/29 11:33:23;;;;;;;17.55;7.57;;;7.90;99.90;;;;;;5094465;28;20040;-66
2021/12/29 11:35:53;;;;;;;19.92;7.07;;;7.60;99.90;;;;;;5093217;28;20039;-66
2021/12/29 11:38:22;;;;;;;16.05;6.60;;;7.80;99.90;;;;;;5076270;28;20047;-66
2021/12/29 11:41:00;;;;;;;30.48;8.43;;;9.10;99.90;;;;;;5093750;28;20095;-66
2021/12/29 11:43:26;;;;;;;23.60;8.85;;;9.20;99.90;;;;;;5086721;28;20058;-65
2021/12/29 11:45:56;;;;;;;21.05;7.97;;;8.60;99.90;;;;;;5094036;28;20123;-65
2021/12/29 11:48:23;;;;;;;25.92;8.45;;;8.50;99.90;;;;;;5092133;28;20385;-65
2021/12/29 11:51:01;;;;;;;21.45;6.47;;;8.00;99.90;;;;;;5093463;28;20046;-65
2021/12/29 11:54:14;;;;;;;16.73;6.07;;;9.40;99.90;;;;;;5077511;28;20040;-65
2021/12/29 11:56:42;;;;;;;23.73;6.43;;;8.00;99.90;;;;;;5081433;28;20055;-66
2021/12/29 11:59:09;;;;;;;19.40;5.78;;;8.00;99.90;;;;;;5107545;28;20054;-66
2021/12/29 12:01:36;;;;;;;16.83;5.70;;;7.90;99.90;;;;;;5074081;28;20044;-67
2021/12/29 12:04:10;;;;;;;17.60;5.30;;;7.80;99.90;;;;;;5083474;28;20047;-66
2021/12/29 12:06:38;;;;;;;17.60;6.13;;;8.00;99.90;;;;;;5094362;28;20108;-67
2021/12/29 12:09:10;;;;;;;22.80;5.60;;;8.00;99.90;;;;;;5093866;28;20503;-67
2021/12/29 12:11:37;;;;;;;19.20;6.38;;;8.00;99.90;;;;;;5075936;28;20074;-67
2021/12/29 12:14:15;;;;;;;16.67;6.20;;;8.00;99.90;;;;;;5094005;28;20150;-66
2021/12/29 12:16:53;;;;;;;15.15;6.03;;;7.80;99.90;;;;;;5094507;28;20047;-66
2021/12/29 12:19:24;;;;;;;17.80;6.38;;;7.70;99.90;;;;;;5073503;28;20516;-66
2021/12/29 12:22:04;;;;;;;22.80;5.90;;;8.00;99.90;;;;;;5090406;28;20082;-66
2021/12/29 12:24:30;;;;;;;14.95;4.38;;;8.00;99.90;;;;;;5073501;28;20048;-66
2021/12/29 12:26:57;;;;;;;15.15;4.78;;;8.00;99.90;;;;;;5089670;28;20051;-66
2021/12/29 12:29:25;;;;;;;17.75;4.45;;;7.90;99.90;;;;;;5107689;28;20087;-66
2021/12/29 12:32:12;;;;;;;17.52;5.05;;;8.00;99.90;;;;;;5092115;28;20066;-69
2021/12/29 12:34:47;;;;;;;14.80;4.25;;;8.10;99.90;;;;;;5091907;27;20817;-69
2021/12/29 12:37:16;;;;;;;14.80;4.55;;;8.00;99.90;;;;;;5089133;28;20786;-69
2021/12/29 12:39:55;;;;;;;11.98;5.13;;;8.00;99.90;;;;;;5076790;28;20051;-69
2021/12/29 12:42:21;;;;;;;13.32;4.63;;;8.10;99.90;;;;;;5091885;28;20466;-69
2021/12/29 12:44:47;;;;;;;14.73;5.22;;;7.70;99.90;;;;;;5091697;28;20047;-69
2021/12/29 12:47:14;;;;;;;12.38;5.22;;;7.70;99.90;;;;;;5072734;28;20114;-69
2021/12/29 12:49:47;;;;;;;18.75;7.40;;;7.90;99.90;;;;;;5074030;28;20048;-69
2021/12/29 12:52:14;;;;;;;9.10;5.30;;;8.00;99.90;;;;;;5097381;28;20480;-69
2021/12/29 12:54:53;;;;;;;14.20;5.30;;;8.00;99.90;;;;;;5104611;28;20100;-69
2021/12/29 12:57:32;;;;;;;15.50;5.32;;;7.90;99.90;;;;;;5093637;28;20090;-69